createdAt,value
2022-10-31T00:01:36.892Z,8.65
2022-10-31T00:04:06.912Z,8.70
2022-10-31T00:06:37.290Z,8.81
2022-10-31T00:09:11.329Z,8.51
2022-10-31T00:11:45.184Z,8.58
2022-10-31T00:14:14.340Z,8.75
2022-10-31T00:16:43.955Z,8.66
2022-10-31T00:19:13.048Z,8.03
2022-10-31T00:21:43.356Z,8.65
2022-10-31T00:24:14.473Z,8.67
2022-10-31T00:26:43.296Z,8.64
2022-10-31T00:29:14.002Z,8.50
2022-10-31T00:31:43.210Z,7.85
2022-10-31T00:34:12.140Z,8.38
2022-10-31T00:36:41.227Z,8.44
2022-10-31T00:39:15.985Z,8.60
2022-10-31T00:41:44.716Z,8.55
2022-10-31T00:44:15.304Z,8.43
2022-10-31T00:46:44.418Z,8.34
2022-10-31T00:49:13.419Z,8.37
2022-10-31T00:51:42.707Z,7.92
2022-10-31T00:54:12.079Z,8.15
2022-10-31T00:56:42.602Z,8.31
2022-10-31T00:59:11.576Z,8.45
2022-10-31T01:01:40.752Z,8.36
2022-10-31T01:04:10.019Z,8.27
2022-10-31T01:06:39.161Z,7.58
2022-10-31T01:09:08.394Z,7.72
2022-10-31T01:11:37.830Z,7.80
2022-10-31T01:14:11.698Z,8.53
2022-10-31T01:16:41.588Z,8.38
2022-10-31T01:19:11.217Z,7.77
2022-10-31T01:21:42.296Z,8.15
2022-10-31T01:24:11.396Z,8.61
2022-10-31T01:26:41.280Z,7.89
2022-10-31T01:29:15.211Z,8.70
2022-10-31T01:31:44.024Z,8.74
2022-10-31T01:34:15.771Z,8.64
2022-10-31T01:36:46.007Z,8.63
2022-10-31T01:39:17.014Z,8.81
2022-10-31T01:41:48.987Z,8.69
2022-10-31T01:44:53.686Z,8.74
2022-10-31T01:47:43.569Z,8.68
2022-10-31T01:50:17.600Z,8.73
2022-10-31T01:52:49.746Z,8.59
2022-10-31T01:55:26.336Z,8.44
2022-10-31T01:58:02.656Z,8.61
2022-10-31T02:00:33.543Z,8.19
2022-10-31T02:03:02.992Z,7.96
2022-10-31T02:05:33.015Z,8.63
2022-10-31T02:08:16.662Z,8.58
2022-10-31T02:10:46.666Z,8.60
2022-10-31T02:13:15.958Z,8.47
2022-10-31T02:15:52.599Z,8.28
2022-10-31T02:18:22.801Z,8.50
2022-10-31T02:21:01.020Z,8.51
2022-10-31T02:24:05.798Z,8.53
2022-10-31T02:26:52.201Z,8.30
2022-10-31T02:30:06.021Z,8.55
2022-10-31T02:32:53.967Z,8.52
2022-10-31T02:35:35.345Z,8.55
2022-10-31T02:38:10.805Z,8.48
2022-10-31T02:40:51.948Z,8.52
2022-10-31T02:43:42.332Z,8.65
2022-10-31T02:46:17.103Z,8.86
2022-10-31T02:48:50.192Z,9.07
2022-10-31T02:51:19.785Z,9.06
2022-10-31T02:53:50.426Z,8.79
2022-10-31T02:56:21.441Z,8.91
2022-10-31T02:58:54.041Z,8.66
2022-10-31T03:01:57.274Z,8.01
2022-10-31T03:04:50.763Z,9.02
2022-10-31T03:07:30.875Z,9.18
2022-10-31T03:10:13.876Z,8.36
2022-10-31T03:12:52.096Z,8.93
2022-10-31T03:15:27.066Z,8.98
2022-10-31T03:18:01.551Z,8.89
2022-10-31T03:20:37.815Z,8.73
2022-10-31T03:23:10.650Z,9.06
2022-10-31T03:25:41.676Z,8.93
2022-10-31T03:28:14.593Z,8.99
2022-10-31T03:30:46.619Z,8.94
2022-10-31T03:33:20.563Z,8.83
2022-10-31T03:35:55.347Z,8.81
2022-10-31T03:38:25.142Z,8.38
2022-10-31T03:40:58.353Z,8.43
2022-10-31T03:43:33.475Z,8.36
2022-10-31T03:46:02.448Z,8.39
2022-10-31T03:48:31.653Z,8.13
2022-10-31T03:51:10.339Z,8.14
2022-10-31T03:53:47.142Z,8.21
2022-10-31T03:56:25.056Z,8.02
2022-10-31T03:59:01.205Z,8.00
2022-10-31T04:01:34.512Z,7.81
2022-10-31T04:04:05.642Z,7.76
2022-10-31T04:06:38.983Z,7.93
2022-10-31T04:09:11.484Z,7.84
2022-10-31T04:11:46.748Z,7.87
2022-10-31T04:14:52.776Z,7.56
2022-10-31T04:17:27.846Z,7.43
2022-10-31T04:19:57.908Z,7.45
2022-10-31T04:22:28.599Z,7.74
2022-10-31T04:24:57.546Z,6.54
2022-10-31T04:27:26.442Z,7.04
2022-10-31T04:29:55.692Z,6.72
2022-10-31T04:32:24.963Z,7.50
2022-10-31T04:34:55.565Z,7.47
2022-10-31T04:37:28.846Z,6.36
2022-10-31T04:39:58.358Z,7.27
2022-10-31T04:42:47.568Z,7.27
2022-10-31T04:45:21.303Z,7.25
2022-10-31T04:47:53.932Z,7.00
2022-10-31T04:50:23.135Z,6.75
2022-10-31T04:52:54.485Z,6.58
2022-10-31T04:55:28.581Z,6.03
2022-10-31T04:58:22.016Z,7.18
2022-10-31T05:00:55.461Z,6.95
2022-10-31T05:03:24.776Z,7.14
2022-10-31T05:05:53.840Z,6.79
2022-10-31T05:08:24.472Z,7.02
2022-10-31T05:10:55.173Z,6.78
2022-10-31T05:13:29.393Z,6.99
2022-10-31T05:16:04.378Z,5.94
2022-10-31T05:19:01.225Z,6.90
2022-10-31T05:22:08.747Z,7.02
2022-10-31T05:24:42.142Z,5.99
2022-10-31T05:27:13.762Z,7.09
2022-10-31T05:29:43.651Z,6.40
2022-10-31T05:32:12.700Z,6.68
2022-10-31T05:35:18.073Z,7.11
2022-10-31T05:38:21.416Z,6.89
2022-10-31T05:40:52.041Z,7.07
2022-10-31T05:43:21.180Z,6.40
2022-10-31T05:45:54.433Z,6.51
2022-10-31T05:48:43.345Z,5.95
2022-10-31T05:51:35.432Z,6.94
2022-10-31T05:54:08.821Z,7.10
2022-10-31T05:56:44.359Z,6.85
2022-10-31T05:59:13.484Z,6.26
2022-10-31T06:01:44.500Z,6.78
2022-10-31T15:53:20.584Z,7.30
2022-10-31T15:55:53.011Z,7.36
2022-10-31T15:58:23.535Z,7.36
2022-10-31T16:01:03.699Z,7.20
2022-10-31T16:03:33.785Z,7.40
2022-10-31T16:06:05.837Z,6.54
2022-10-31T16:08:37.991Z,7.10
2022-10-31T16:11:20.746Z,7.09
2022-10-31T16:14:01.074Z,7.23
2022-10-31T16:16:35.988Z,7.05
2022-10-31T16:19:09.718Z,7.06
2022-10-31T16:21:40.353Z,7.09
2022-10-31T16:24:20.737Z,7.13
2022-10-31T16:26:51.578Z,7.05
2022-10-31T16:29:29.702Z,7.10
2022-10-31T16:31:59.220Z,7.13
2022-10-31T16:34:28.329Z,6.97
2022-10-31T16:36:57.113Z,6.93
2022-10-31T16:39:27.378Z,6.89
2022-10-31T16:41:58.430Z,6.11
2022-10-31T16:44:28.545Z,6.33
2022-10-31T16:47:11.628Z,6.61
2022-10-31T16:49:40.429Z,6.54
2022-10-31T16:52:09.367Z,6.41
2022-10-31T16:54:40.198Z,6.46
2022-10-31T16:57:14.815Z,6.50
2022-10-31T16:59:44.259Z,6.38
2022-10-31T17:02:17.241Z,6.34
2022-10-31T17:04:47.614Z,5.58
2022-10-31T17:07:18.515Z,6.39
2022-10-31T17:09:48.813Z,6.39
2022-10-31T17:12:24.204Z,6.17
2022-10-31T17:14:54.357Z,5.98
2022-10-31T17:17:23.192Z,6.17
2022-10-31T17:19:52.080Z,6.12
2022-10-31T17:22:20.838Z,5.98
2022-10-31T17:24:51.043Z,5.86
2022-10-31T17:27:21.615Z,5.85
2022-10-31T17:29:50.322Z,5.54
2022-10-31T17:32:19.829Z,5.89
2022-10-31T17:34:54.390Z,5.80
2022-10-31T17:37:23.277Z,5.71
2022-10-31T17:39:53.506Z,5.84
2022-10-31T17:42:22.285Z,5.89
2022-10-31T17:44:51.086Z,5.70
2022-10-31T17:47:20.440Z,5.99
2022-10-31T17:49:49.456Z,4.84
2022-10-31T17:52:18.208Z,5.86
2022-10-31T17:54:48.175Z,5.88
2022-10-31T17:57:18.607Z,5.76
2022-10-31T17:59:47.787Z,5.87
2022-10-31T18:02:17.770Z,5.79
2022-10-31T18:04:47.121Z,5.62
2022-10-31T18:07:20.318Z,5.59
2022-10-31T18:09:51.933Z,5.49
2022-10-31T18:12:23.770Z,5.31
2022-10-31T18:14:53.509Z,5.60
2022-10-31T18:17:23.255Z,5.17
2022-10-31T18:19:53.331Z,5.45
2022-10-31T18:22:22.824Z,5.33
2022-10-31T18:24:52.029Z,4.62
2022-10-31T18:27:25.040Z,5.26
2022-10-31T18:29:54.634Z,5.25
2022-10-31T18:32:26.795Z,4.95
2022-10-31T18:34:56.416Z,5.00
2022-10-31T18:37:31.658Z,5.47
2022-10-31T18:40:01.889Z,5.50
2022-10-31T18:42:35.442Z,5.32
2022-10-31T18:45:12.019Z,5.34
2022-10-31T18:48:00.709Z,5.30
2022-10-31T18:50:32.624Z,5.22
2022-10-31T18:53:04.502Z,5.27
2022-10-31T18:55:33.903Z,5.20
2022-10-31T18:58:07.909Z,5.22
2022-10-31T19:00:38.698Z,4.74
2022-10-31T19:03:08.396Z,5.01
2022-10-31T19:05:37.676Z,4.83
2022-10-31T19:08:08.936Z,4.98
2022-10-31T19:10:40.180Z,4.57
2022-10-31T19:13:11.111Z,4.90
2022-10-31T19:15:40.399Z,4.83
2022-10-31T19:18:09.613Z,4.87
2022-10-31T19:20:41.503Z,4.67
2022-10-31T19:23:10.973Z,4.85
2022-10-31T19:25:41.423Z,4.81
2022-10-31T19:28:17.048Z,4.89
2022-10-31T19:30:56.503Z,4.78
2022-10-31T19:33:58.651Z,2.87
2022-10-31T19:36:29.651Z,4.83
2022-10-31T19:39:02.153Z,4.76
2022-10-31T19:41:32.816Z,4.85
2022-10-31T19:44:04.319Z,4.47
2022-10-31T19:46:52.742Z,4.45
2022-10-31T19:49:24.718Z,4.60
2022-10-31T19:51:54.483Z,4.77
2022-10-31T19:54:23.958Z,4.77
2022-10-31T19:56:53.227Z,4.65
2022-10-31T19:59:25.202Z,4.73
2022-10-31T20:01:56.684Z,4.64
2022-10-31T20:04:26.822Z,4.67
2022-10-31T20:06:58.740Z,4.38
2022-10-31T20:09:27.820Z,4.48
2022-10-31T20:12:00.473Z,4.60
2022-10-31T20:14:33.034Z,4.12
2022-10-31T20:17:04.018Z,4.64
2022-10-31T20:19:35.052Z,4.56
2022-10-31T20:22:20.753Z,4.10
2022-10-31T20:24:55.318Z,4.53
2022-10-31T20:27:25.384Z,4.17
2022-10-31T20:29:55.916Z,4.22
2022-10-31T20:32:25.225Z,4.33
2022-10-31T20:34:54.942Z,4.28
2022-10-31T20:37:23.919Z,4.45
2022-10-31T20:39:55.730Z,4.21
2022-10-31T20:42:26.431Z,4.18
2022-10-31T20:44:57.154Z,4.12
2022-10-31T20:47:26.959Z,4.11
2022-10-31T20:49:56.258Z,3.93
2022-10-31T20:52:25.557Z,4.15
2022-10-31T20:54:58.143Z,4.26
2022-10-31T20:57:30.568Z,4.15
2022-10-31T21:00:02.042Z,4.07
2022-10-31T21:02:33.885Z,4.27
2022-10-31T21:05:08.481Z,4.26
2022-10-31T21:07:41.547Z,4.02
2022-10-31T21:10:16.053Z,3.97
2022-10-31T21:12:48.049Z,3.92
2022-10-31T21:15:19.376Z,4.00
2022-10-31T21:17:54.007Z,4.30
2022-10-31T21:20:28.387Z,3.98
2022-10-31T21:23:01.402Z,4.27
2022-10-31T21:25:31.325Z,3.98
2022-10-31T21:28:03.549Z,4.13
2022-10-31T21:30:34.663Z,4.07
2022-10-31T21:33:07.780Z,4.23
2022-10-31T21:35:37.215Z,3.66
2022-10-31T21:38:07.053Z,4.12
2022-10-31T21:40:37.112Z,3.84
2022-10-31T21:43:06.849Z,4.06
2022-10-31T21:45:39.853Z,3.69
2022-10-31T21:48:13.726Z,3.86
2022-10-31T21:50:46.574Z,3.91
2022-10-31T21:53:36.695Z,3.68
2022-10-31T21:56:07.809Z,3.83
2022-10-31T21:58:38.578Z,3.82
2022-10-31T22:01:10.087Z,3.69
2022-10-31T22:03:39.944Z,3.78
2022-10-31T22:06:16.266Z,3.77
2022-10-31T22:08:46.060Z,3.57
2022-10-31T22:11:17.507Z,3.60
2022-10-31T22:13:48.996Z,3.15
2022-10-31T22:16:23.720Z,3.57
2022-10-31T22:18:54.648Z,3.60
2022-10-31T22:21:25.829Z,3.58
2022-10-31T22:23:56.568Z,3.36
2022-10-31T22:26:26.926Z,3.35
2022-10-31T22:28:59.603Z,3.54
2022-10-31T22:31:31.670Z,3.41
2022-10-31T22:34:00.823Z,3.53
2022-10-31T22:36:31.730Z,3.35
2022-10-31T22:39:02.232Z,3.51
2022-10-31T22:41:33.943Z,3.39
2022-10-31T22:44:05.326Z,3.26
2022-10-31T22:46:37.855Z,3.43
2022-10-31T22:49:09.439Z,3.30
2022-10-31T22:51:40.492Z,3.16
2022-10-31T22:54:13.619Z,3.22
2022-10-31T22:56:42.815Z,3.08
2022-10-31T22:59:13.915Z,3.20
2022-10-31T23:01:46.129Z,3.05
2022-10-31T23:04:16.913Z,2.99
2022-10-31T23:06:46.346Z,3.11
2022-10-31T23:09:17.253Z,3.08
2022-10-31T23:11:46.234Z,2.95
2022-10-31T23:14:18.780Z,2.96
2022-10-31T23:16:51.612Z,2.98
2022-10-31T23:19:22.803Z,2.78
2022-10-31T23:22:00.432Z,2.72
2022-10-31T23:24:33.795Z,2.93
2022-10-31T23:27:09.850Z,2.88
2022-10-31T23:29:43.408Z,3.05
2022-10-31T23:32:19.522Z,2.51
2022-10-31T23:34:50.259Z,3.09
2022-10-31T23:37:21.015Z,2.99
2022-10-31T23:39:50.521Z,3.00
2022-10-31T23:42:20.538Z,3.11
2022-10-31T23:44:49.963Z,2.98
2022-10-31T23:47:21.239Z,2.91
2022-10-31T23:49:50.996Z,2.98
2022-10-31T23:52:20.296Z,3.00
2022-10-31T23:54:49.251Z,2.95
2022-10-31T23:57:18.702Z,2.82
2022-10-31T23:59:48.020Z,2.92
